createdAt,value
2022-10-13T00:00:41.093Z,9.82
2022-10-13T00:03:09.603Z,10.43
2022-10-13T00:05:41.528Z,10.30
2022-10-13T00:08:09.945Z,11.25
2022-10-13T00:10:38.003Z,12.00
2022-10-13T00:13:06.146Z,12.73
2022-10-13T00:15:33.706Z,13.50
2022-10-13T00:18:02.701Z,12.83
2022-10-13T00:20:30.170Z,13.75
2022-10-13T00:22:57.663Z,14.37
2022-10-13T00:25:25.220Z,14.13
2022-10-13T00:27:52.754Z,15.73
2022-10-13T00:30:20.258Z,14.60
2022-10-13T00:32:47.972Z,15.05
2022-10-13T00:35:17.147Z,15.05
2022-10-13T00:37:44.848Z,14.90
2022-10-13T00:40:13.561Z,14.65
2022-10-13T00:42:42.638Z,15.02
2022-10-13T00:45:23.133Z,14.45
2022-10-13T00:47:54.302Z,14.15
2022-10-13T00:50:25.408Z,13.73
2022-10-13T00:52:54.447Z,13.63
2022-10-13T00:55:24.598Z,13.00
2022-10-13T00:57:54.764Z,12.93
2022-10-13T01:00:23.188Z,13.23
2022-10-13T01:02:51.205Z,12.77
2022-10-13T01:05:19.998Z,12.60
2022-10-13T01:07:50.165Z,12.30
2022-10-13T01:10:24.783Z,13.20
2022-10-13T01:13:01.204Z,12.70
2022-10-13T01:15:32.216Z,13.32
2022-10-13T01:18:07.793Z,13.87
2022-10-13T01:20:57.073Z,13.73
2022-10-13T01:23:57.370Z,13.25
2022-10-13T01:26:42.814Z,14.45
2022-10-13T01:29:29.530Z,13.45
2022-10-13T01:32:04.122Z,13.73
2022-10-13T01:34:35.870Z,14.13
2022-10-13T01:37:06.547Z,14.10
2022-10-13T01:39:38.295Z,15.07
2022-10-13T01:42:13.227Z,14.00
2022-10-13T01:44:42.626Z,13.63
2022-10-13T01:47:12.704Z,14.55
2022-10-13T01:49:40.401Z,13.98
2022-10-13T01:52:10.431Z,13.50
2022-10-13T01:54:38.180Z,14.65
2022-10-13T01:57:06.166Z,14.05
2022-10-13T01:59:38.602Z,13.50
2022-10-13T02:02:13.372Z,12.50
2022-10-13T02:04:48.523Z,13.65
2022-10-13T02:07:21.565Z,14.13
2022-10-13T02:09:58.889Z,13.55
2022-10-13T02:12:29.496Z,13.35
2022-10-13T02:14:57.791Z,12.77
2022-10-13T02:17:28.049Z,13.52
2022-10-13T02:19:58.133Z,13.95
2022-10-13T02:22:30.940Z,12.97
2022-10-13T02:24:58.655Z,12.77
2022-10-13T02:27:26.390Z,13.30
2022-10-13T02:29:55.484Z,14.15
2022-10-13T02:32:23.732Z,13.38
2022-10-13T02:34:53.322Z,14.00
2022-10-13T02:37:21.028Z,13.52
2022-10-13T02:39:48.747Z,13.40
2022-10-13T02:42:16.305Z,13.90
2022-10-13T02:44:44.023Z,14.25
2022-10-13T02:47:11.786Z,13.82
2022-10-13T02:49:39.271Z,14.13
2022-10-13T02:52:08.200Z,14.20
2022-10-13T02:54:35.890Z,13.77
2022-10-13T02:57:03.567Z,14.38
2022-10-13T02:59:31.292Z,13.67
2022-10-13T03:01:58.958Z,13.40
2022-10-13T03:04:26.674Z,12.88
2022-10-13T03:06:54.188Z,12.63
2022-10-13T03:09:23.074Z,12.80
2022-10-13T03:11:51.036Z,13.73
2022-10-13T03:14:18.970Z,12.07
2022-10-13T03:16:46.760Z,12.82
2022-10-13T03:19:14.452Z,13.32
2022-10-13T03:21:42.211Z,13.18
2022-10-13T03:24:10.107Z,13.10
2022-10-13T03:26:39.214Z,12.83
2022-10-13T03:29:06.988Z,12.65
2022-10-13T03:31:34.577Z,12.55
2022-10-13T03:34:02.213Z,12.50
2022-10-13T03:36:29.924Z,11.95
2022-10-13T03:38:57.612Z,12.70
2022-10-13T03:41:25.136Z,12.68
2022-10-13T03:43:54.180Z,11.65
2022-10-13T03:46:22.010Z,11.95
2022-10-13T03:48:49.528Z,12.13
2022-10-13T03:51:18.804Z,11.75
2022-10-13T03:53:46.645Z,13.18
2022-10-13T03:56:16.142Z,12.70
2022-10-13T03:58:44.164Z,11.73
2022-10-13T04:01:14.242Z,13.07
2022-10-13T04:03:42.084Z,12.35
2022-10-13T04:06:11.045Z,12.63
2022-10-13T04:08:38.893Z,11.23
2022-10-13T04:11:08.353Z,12.82
2022-10-13T04:13:36.726Z,12.45
2022-10-13T04:16:05.418Z,12.17
2022-10-13T04:18:34.431Z,12.23
2022-10-13T04:21:02.225Z,12.18
2022-10-13T04:23:29.909Z,12.35
2022-10-13T04:25:57.867Z,13.27
2022-10-13T04:28:25.606Z,12.60
2022-10-13T04:30:53.559Z,12.85
2022-10-13T04:33:21.283Z,12.85
2022-10-13T04:38:54.606Z,12.40
2022-10-13T04:41:23.132Z,12.75
2022-10-13T04:43:51.419Z,12.52
2022-10-13T04:46:21.257Z,12.57
2022-10-13T04:48:49.017Z,13.15
2022-10-13T04:51:19.546Z,13.07
2022-10-13T04:59:28.299Z,12.05
2022-10-13T05:01:55.975Z,13.05
2022-10-13T05:04:23.495Z,12.15
2022-10-13T05:07:16.469Z,12.43
2022-10-13T05:09:40.127Z,11.40
2022-10-13T05:12:08.170Z,11.43
2022-10-13T05:14:35.791Z,12.48
2022-10-13T05:17:03.419Z,12.98
2022-10-13T05:19:31.114Z,12.60
2022-10-13T05:22:00.163Z,12.48
2022-10-13T05:24:36.753Z,12.15
2022-10-13T05:27:06.143Z,12.35
2022-10-13T05:29:33.861Z,13.10
2022-10-13T05:32:01.360Z,13.15
2022-10-13T05:34:28.968Z,11.77
2022-10-13T05:36:56.542Z,12.75
2022-10-13T05:39:25.549Z,12.07
2022-10-13T05:41:54.106Z,12.50
2022-10-13T05:44:21.909Z,12.48
2022-10-13T05:50:00.473Z,12.70
2022-10-13T05:52:28.867Z,12.82
2022-10-13T06:01:42.994Z,11.70
2022-10-13T06:04:14.439Z,13.02
2022-10-13T06:06:42.421Z,12.25
2022-10-13T06:38:29.527Z,11.70
